sensor_id;sensor_type;location;lat;lon;timestamp;P1;durP1;ratioP1;P2;durP2;ratioP2
5209;SDS011;2624;48.048;11.706;2023-09-07T00:04:30;3.13;;;2.50;;
5209;SDS011;2624;48.048;11.706;2023-09-07T00:09:34;3.17;;;2.90;;
5209;SDS011;2624;48.048;11.706;2023-09-07T00:14:35;14.63;;;3.10;;
5209;SDS011;2624;48.048;11.706;2023-09-07T00:19:37;2.73;;;2.47;;
5209;SDS011;2624;48.048;11.706;2023-09-07T00:24:40;3.20;;;2.47;;
5209;SDS011;2624;48.048;11.706;2023-09-07T00:29:42;2.33;;;2.07;;
5209;SDS011;2624;48.048;11.706;2023-09-07T00:34:44;4.17;;;2.70;;
5209;SDS011;2624;48.048;11.706;2023-09-07T00:39:48;4.13;;;2.33;;
5209;SDS011;2624;48.048;11.706;2023-09-07T00:44:49;2.63;;;2.47;;
5209;SDS011;2624;48.048;11.706;2023-09-07T00:49:51;2.17;;;1.97;;
5209;SDS011;2624;48.048;11.706;2023-09-07T00:54:54;2.50;;;2.30;;
5209;SDS011;2624;48.048;11.706;2023-09-07T00:59:56;2.27;;;2.17;;
5209;SDS011;2624;48.048;11.706;2023-09-07T01:04:58;2.63;;;2.33;;
5209;SDS011;2624;48.048;11.706;2023-09-07T01:10:02;2.80;;;2.60;;
5209;SDS011;2624;48.048;11.706;2023-09-07T01:15:05;1.90;;;1.80;;
5209;SDS011;2624;48.048;11.706;2023-09-07T01:20:08;5.80;;;2.40;;
5209;SDS011;2624;48.048;11.706;2023-09-07T01:25:18;2.23;;;2.13;;
5209;SDS011;2624;48.048;11.706;2023-09-07T01:30:21;2.30;;;2.17;;
5209;SDS011;2624;48.048;11.706;2023-09-07T01:35:23;2.77;;;2.67;;
5209;SDS011;2624;48.048;11.706;2023-09-07T01:40:27;2.20;;;2.13;;
5209;SDS011;2624;48.048;11.706;2023-09-07T01:45:29;2.40;;;2.30;;
5209;SDS011;2624;48.048;11.706;2023-09-07T01:50:30;2.13;;;2.03;;
5209;SDS011;2624;48.048;11.706;2023-09-07T01:55:34;2.77;;;2.67;;
5209;SDS011;2624;48.048;11.706;2023-09-07T02:00:36;4.13;;;2.13;;
5209;SDS011;2624;48.048;11.706;2023-09-07T02:05:39;2.33;;;2.23;;
5209;SDS011;2624;48.048;11.706;2023-09-07T02:10:42;2.93;;;2.73;;
5209;SDS011;2624;48.048;11.706;2023-09-07T02:15:44;2.63;;;2.53;;
5209;SDS011;2624;48.048;11.706;2023-09-07T02:20:46;2.40;;;2.30;;
5209;SDS011;2624;48.048;11.706;2023-09-07T02:25:49;3.37;;;3.07;;
5209;SDS011;2624;48.048;11.706;2023-09-07T02:30:50;2.30;;;2.10;;
5209;SDS011;2624;48.048;11.706;2023-09-07T02:35:52;2.60;;;2.40;;
5209;SDS011;2624;48.048;11.706;2023-09-07T02:40:56;2.07;;;1.97;;
5209;SDS011;2624;48.048;11.706;2023-09-07T02:45:58;2.83;;;2.50;;
5209;SDS011;2624;48.048;11.706;2023-09-07T02:51:00;2.00;;;1.90;;
5209;SDS011;2624;48.048;11.706;2023-09-07T02:56:03;2.70;;;2.50;;
5209;SDS011;2624;48.048;11.706;2023-09-07T03:01:05;2.90;;;2.17;;
5209;SDS011;2624;48.048;11.706;2023-09-07T03:06:08;2.30;;;2.10;;
5209;SDS011;2624;48.048;11.706;2023-09-07T03:11:12;2.00;;;1.90;;
5209;SDS011;2624;48.048;11.706;2023-09-07T03:16:14;2.37;;;2.23;;
5209;SDS011;2624;48.048;11.706;2023-09-07T03:21:16;2.73;;;2.53;;
5209;SDS011;2624;48.048;11.706;2023-09-07T03:26:19;3.20;;;2.30;;
5209;SDS011;2624;48.048;11.706;2023-09-07T03:31:21;2.50;;;2.37;;
5209;SDS011;2624;48.048;11.706;2023-09-07T03:36:23;2.30;;;2.10;;
5209;SDS011;2624;48.048;11.706;2023-09-07T03:41:26;2.57;;;2.47;;
5209;SDS011;2624;48.048;11.706;2023-09-07T03:46:30;2.27;;;2.17;;
5209;SDS011;2624;48.048;11.706;2023-09-07T03:51:32;2.27;;;2.17;;
5209;SDS011;2624;48.048;11.706;2023-09-07T03:56:35;1.63;;;1.53;;
5209;SDS011;2624;48.048;11.706;2023-09-07T04:01:39;2.20;;;2.10;;
5209;SDS011;2624;48.048;11.706;2023-09-07T04:06:41;2.63;;;2.20;;
5209;SDS011;2624;48.048;11.706;2023-09-07T04:11:44;2.13;;;1.93;;
5209;SDS011;2624;48.048;11.706;2023-09-07T04:16:46;2.10;;;2.00;;
5209;SDS011;2624;48.048;11.706;2023-09-07T04:21:47;3.67;;;2.30;;
5209;SDS011;2624;48.048;11.706;2023-09-07T04:26:51;2.80;;;2.60;;
5209;SDS011;2624;48.048;11.706;2023-09-07T04:31:53;2.13;;;2.03;;
5209;SDS011;2624;48.048;11.706;2023-09-07T04:36:54;4.03;;;2.80;;
5209;SDS011;2624;48.048;11.706;2023-09-07T04:41:57;2.40;;;2.30;;
5209;SDS011;2624;48.048;11.706;2023-09-07T04:46:59;2.37;;;2.27;;
5209;SDS011;2624;48.048;11.706;2023-09-07T04:52:01;2.73;;;2.53;;
5209;SDS011;2624;48.048;11.706;2023-09-07T04:57:04;4.53;;;2.70;;
5209;SDS011;2624;48.048;11.706;2023-09-07T05:02:06;2.53;;;2.30;;
5209;SDS011;2624;48.048;11.706;2023-09-07T05:07:08;2.40;;;2.13;;
5209;SDS011;2624;48.048;11.706;2023-09-07T05:12:11;2.60;;;2.50;;
5209;SDS011;2624;48.048;11.706;2023-09-07T05:17:14;3.60;;;3.07;;
5209;SDS011;2624;48.048;11.706;2023-09-07T05:22:16;2.73;;;2.53;;
5209;SDS011;2624;48.048;11.706;2023-09-07T05:27:21;3.47;;;2.80;;
5209;SDS011;2624;48.048;11.706;2023-09-07T05:32:23;3.60;;;2.53;;
5209;SDS011;2624;48.048;11.706;2023-09-07T05:37:24;3.53;;;3.23;;
5209;SDS011;2624;48.048;11.706;2023-09-07T05:42:27;3.40;;;3.10;;
5209;SDS011;2624;48.048;11.706;2023-09-07T05:47:29;4.30;;;2.67;;
5209;SDS011;2624;48.048;11.706;2023-09-07T05:52:31;3.27;;;3.00;;
5209;SDS011;2624;48.048;11.706;2023-09-07T05:57:34;3.80;;;3.50;;
5209;SDS011;2624;48.048;11.706;2023-09-07T06:02:36;3.77;;;3.30;;
5209;SDS011;2624;48.048;11.706;2023-09-07T06:07:38;5.13;;;3.90;;
5209;SDS011;2624;48.048;11.706;2023-09-07T06:12:41;3.77;;;3.47;;
5209;SDS011;2624;48.048;11.706;2023-09-07T06:17:43;10.73;;;3.30;;
5209;SDS011;2624;48.048;11.706;2023-09-07T06:22:45;5.60;;;3.57;;
5209;SDS011;2624;48.048;11.706;2023-09-07T06:27:49;4.07;;;2.97;;
5209;SDS011;2624;48.048;11.706;2023-09-07T06:32:50;5.53;;;4.83;;
5209;SDS011;2624;48.048;11.706;2023-09-07T06:37:53;8.27;;;4.27;;
5209;SDS011;2624;48.048;11.706;2023-09-07T06:42:57;4.87;;;4.00;;
5209;SDS011;2624;48.048;11.706;2023-09-07T06:47:59;5.40;;;4.70;;
5209;SDS011;2624;48.048;11.706;2023-09-07T06:53:00;8.80;;;7.20;;
5209;SDS011;2624;48.048;11.706;2023-09-07T06:58:04;8.63;;;6.70;;
5209;SDS011;2624;48.048;11.706;2023-09-07T07:03:06;6.27;;;5.67;;
5209;SDS011;2624;48.048;11.706;2023-09-07T07:08:07;11.93;;;6.90;;
5209;SDS011;2624;48.048;11.706;2023-09-07T07:13:12;11.97;;;7.30;;
5209;SDS011;2624;48.048;11.706;2023-09-07T07:18:13;6.77;;;6.10;;
5209;SDS011;2624;48.048;11.706;2023-09-07T07:23:15;13.43;;;6.13;;
5209;SDS011;2624;48.048;11.706;2023-09-07T07:28:18;6.83;;;6.17;;
5209;SDS011;2624;48.048;11.706;2023-09-07T07:33:20;9.03;;;5.63;;
5209;SDS011;2624;48.048;11.706;2023-09-07T07:38:23;5.90;;;5.40;;
5209;SDS011;2624;48.048;11.706;2023-09-07T07:43:26;8.23;;;5.80;;
5209;SDS011;2624;48.048;11.706;2023-09-07T07:48:27;7.80;;;5.07;;
5209;SDS011;2624;48.048;11.706;2023-09-07T07:53:29;6.60;;;6.00;;
5209;SDS011;2624;48.048;11.706;2023-09-07T07:58:33;9.07;;;5.20;;
5209;SDS011;2624;48.048;11.706;2023-09-07T08:03:35;7.00;;;4.80;;
5209;SDS011;2624;48.048;11.706;2023-09-07T08:08:36;5.57;;;5.07;;
5209;SDS011;2624;48.048;11.706;2023-09-07T08:13:39;7.17;;;5.20;;
5209;SDS011;2624;48.048;11.706;2023-09-07T08:18:44;4.93;;;4.37;;
5209;SDS011;2624;48.048;11.706;2023-09-07T08:23:45;8.47;;;4.83;;
5209;SDS011;2624;48.048;11.706;2023-09-07T08:28:48;12.47;;;4.90;;
5209;SDS011;2624;48.048;11.706;2023-09-07T08:33:50;8.60;;;5.60;;
5209;SDS011;2624;48.048;11.706;2023-09-07T08:38:52;5.20;;;4.70;;
5209;SDS011;2624;48.048;11.706;2023-09-07T08:43:56;5.70;;;5.13;;
5209;SDS011;2624;48.048;11.706;2023-09-07T08:48:59;5.73;;;5.13;;
5209;SDS011;2624;48.048;11.706;2023-09-07T08:54:04;5.23;;;4.73;;
5209;SDS011;2624;48.048;11.706;2023-09-07T08:59:09;5.27;;;4.33;;
5209;SDS011;2624;48.048;11.706;2023-09-07T09:04:10;5.13;;;4.63;;
5209;SDS011;2624;48.048;11.706;2023-09-07T09:09:21;6.33;;;5.27;;
5209;SDS011;2624;48.048;11.706;2023-09-07T09:14:25;7.10;;;5.30;;
5209;SDS011;2624;48.048;11.706;2023-09-07T09:19:31;8.50;;;5.27;;
5209;SDS011;2624;48.048;11.706;2023-09-07T09:24:33;5.43;;;4.17;;
5209;SDS011;2624;48.048;11.706;2023-09-07T09:29:36;5.60;;;5.10;;
5209;SDS011;2624;48.048;11.706;2023-09-07T09:34:38;4.57;;;4.27;;
5209;SDS011;2624;48.048;11.706;2023-09-07T09:39:41;4.70;;;4.37;;
5209;SDS011;2624;48.048;11.706;2023-09-07T09:44:44;5.00;;;4.60;;
5209;SDS011;2624;48.048;11.706;2023-09-07T09:49:46;16.43;;;5.30;;
5209;SDS011;2624;48.048;11.706;2023-09-07T09:54:50;4.70;;;4.30;;
5209;SDS011;2624;48.048;11.706;2023-09-07T09:59:53;6.37;;;4.73;;
5209;SDS011;2624;48.048;11.706;2023-09-07T10:04:55;7.70;;;5.20;;
5209;SDS011;2624;48.048;11.706;2023-09-07T10:09:57;5.03;;;4.63;;
5209;SDS011;2624;48.048;11.706;2023-09-07T10:15:01;5.03;;;4.43;;
5209;SDS011;2624;48.048;11.706;2023-09-07T10:20:03;5.30;;;4.80;;
5209;SDS011;2624;48.048;11.706;2023-09-07T10:25:06;6.13;;;5.57;;
5209;SDS011;2624;48.048;11.706;2023-09-07T10:30:21;9.97;;;5.97;;
5209;SDS011;2624;48.048;11.706;2023-09-07T10:35:24;6.80;;;4.73;;
5209;SDS011;2624;48.048;11.706;2023-09-07T10:40:28;11.33;;;4.50;;
5209;SDS011;2624;48.048;11.706;2023-09-07T10:45:31;5.20;;;4.70;;
5209;SDS011;2624;48.048;11.706;2023-09-07T10:50:41;6.03;;;5.47;;
5209;SDS011;2624;48.048;11.706;2023-09-07T10:55:44;5.30;;;4.77;;
5209;SDS011;2624;48.048;11.706;2023-09-07T11:00:47;6.07;;;4.70;;
5209;SDS011;2624;48.048;11.706;2023-09-07T11:05:49;8.60;;;5.60;;
5209;SDS011;2624;48.048;11.706;2023-09-07T11:10:54;6.03;;;5.20;;
5209;SDS011;2624;48.048;11.706;2023-09-07T11:15:58;4.63;;;4.23;;
5209;SDS011;2624;48.048;11.706;2023-09-07T11:21:00;5.37;;;4.90;;
5209;SDS011;2624;48.048;11.706;2023-09-07T11:26:04;5.47;;;4.97;;
5209;SDS011;2624;48.048;11.706;2023-09-07T11:31:07;4.07;;;3.70;;
5209;SDS011;2624;48.048;11.706;2023-09-07T11:36:09;6.30;;;4.70;;
5209;SDS011;2624;48.048;11.706;2023-09-07T11:41:11;8.03;;;4.83;;
5209;SDS011;2624;48.048;11.706;2023-09-07T11:46:14;5.20;;;4.70;;
5209;SDS011;2624;48.048;11.706;2023-09-07T11:51:16;4.43;;;4.07;;
5209;SDS011;2624;48.048;11.706;2023-09-07T11:56:18;5.00;;;4.60;;
5209;SDS011;2624;48.048;11.706;2023-09-07T12:01:21;5.67;;;4.60;;
5209;SDS011;2624;48.048;11.706;2023-09-07T12:06:23;4.97;;;4.57;;
5209;SDS011;2624;48.048;11.706;2023-09-07T12:11:25;4.90;;;4.50;;
5209;SDS011;2624;48.048;11.706;2023-09-07T12:16:28;6.03;;;4.40;;
5209;SDS011;2624;48.048;11.706;2023-09-07T12:21:30;4.70;;;4.30;;
5209;SDS011;2624;48.048;11.706;2023-09-07T12:26:32;4.60;;;4.23;;
5209;SDS011;2624;48.048;11.706;2023-09-07T12:31:35;8.03;;;4.20;;
5209;SDS011;2624;48.048;11.706;2023-09-07T12:36:37;5.10;;;4.60;;
5209;SDS011;2624;48.048;11.706;2023-09-07T12:41:38;5.00;;;4.47;;
5209;SDS011;2624;48.048;11.706;2023-09-07T12:46:42;26.63;;;4.77;;
5209;SDS011;2624;48.048;11.706;2023-09-07T12:51:45;4.50;;;3.80;;
5209;SDS011;2624;48.048;11.706;2023-09-07T12:56:47;4.40;;;4.00;;
5209;SDS011;2624;48.048;11.706;2023-09-07T13:01:50;4.33;;;3.97;;
5209;SDS011;2624;48.048;11.706;2023-09-07T13:06:53;3.80;;;3.50;;
5209;SDS011;2624;48.048;11.706;2023-09-07T13:11:55;4.70;;;2.73;;
5209;SDS011;2624;48.048;11.706;2023-09-07T13:16:58;3.50;;;3.20;;
5209;SDS011;2624;48.048;11.706;2023-09-07T13:22:00;3.93;;;3.60;;
5209;SDS011;2624;48.048;11.706;2023-09-07T13:27:02;5.50;;;3.90;;
5209;SDS011;2624;48.048;11.706;2023-09-07T13:32:05;3.20;;;3.00;;
5209;SDS011;2624;48.048;11.706;2023-09-07T13:37:07;3.87;;;3.57;;
5209;SDS011;2624;48.048;11.706;2023-09-07T13:42:09;4.60;;;4.20;;
5209;SDS011;2624;48.048;11.706;2023-09-07T13:47:12;4.13;;;3.70;;
5209;SDS011;2624;48.048;11.706;2023-09-07T13:52:14;3.80;;;3.50;;
5209;SDS011;2624;48.048;11.706;2023-09-07T13:57:15;3.33;;;3.13;;
5209;SDS011;2624;48.048;11.706;2023-09-07T14:02:18;3.20;;;3.00;;
5209;SDS011;2624;48.048;11.706;2023-09-07T14:07:20;3.47;;;3.17;;
5209;SDS011;2624;48.048;11.706;2023-09-07T14:12:25;2.77;;;2.50;;
5209;SDS011;2624;48.048;11.706;2023-09-07T14:17:28;5.53;;;3.40;;
5209;SDS011;2624;48.048;11.706;2023-09-07T14:22:30;2.70;;;2.60;;
5209;SDS011;2624;48.048;11.706;2023-09-07T14:27:32;6.87;;;3.40;;
5209;SDS011;2624;48.048;11.706;2023-09-07T14:32:35;4.10;;;3.53;;
5209;SDS011;2624;48.048;11.706;2023-09-07T14:37:37;3.30;;;2.97;;
5209;SDS011;2624;48.048;11.706;2023-09-07T14:42:38;3.63;;;3.43;;
5209;SDS011;2624;48.048;11.706;2023-09-07T14:47:42;3.53;;;3.20;;
5209;SDS011;2624;48.048;11.706;2023-09-07T14:52:44;4.00;;;3.70;;
5209;SDS011;2624;48.048;11.706;2023-09-07T14:57:47;3.20;;;3.00;;
5209;SDS011;2624;48.048;11.706;2023-09-07T15:02:50;5.20;;;3.60;;
5209;SDS011;2624;48.048;11.706;2023-09-07T15:07:52;5.60;;;2.90;;
5209;SDS011;2624;48.048;11.706;2023-09-07T15:12:53;3.67;;;3.47;;
5209;SDS011;2624;48.048;11.706;2023-09-07T15:17:56;2.87;;;2.67;;
5209;SDS011;2624;48.048;11.706;2023-09-07T15:22:58;3.90;;;3.43;;
5209;SDS011;2624;48.048;11.706;2023-09-07T15:28:00;3.27;;;3.10;;
5209;SDS011;2624;48.048;11.706;2023-09-07T15:33:04;2.80;;;2.70;;
5209;SDS011;2624;48.048;11.706;2023-09-07T15:38:06;7.07;;;3.30;;
5209;SDS011;2624;48.048;11.706;2023-09-07T15:43:07;3.80;;;3.60;;
5209;SDS011;2624;48.048;11.706;2023-09-07T15:48:10;4.03;;;3.73;;
5209;SDS011;2624;48.048;11.706;2023-09-07T15:53:12;3.97;;;3.70;;
5209;SDS011;2624;48.048;11.706;2023-09-07T15:58:14;4.23;;;3.60;;
5209;SDS011;2624;48.048;11.706;2023-09-07T16:03:17;3.87;;;3.67;;
5209;SDS011;2624;48.048;11.706;2023-09-07T16:08:19;4.33;;;3.27;;
5209;SDS011;2624;48.048;11.706;2023-09-07T16:13:21;3.87;;;3.53;;
5209;SDS011;2624;48.048;11.706;2023-09-07T16:18:24;10.40;;;4.40;;
5209;SDS011;2624;48.048;11.706;2023-09-07T16:23:26;3.77;;;3.47;;
5209;SDS011;2624;48.048;11.706;2023-09-07T16:28:28;5.33;;;3.27;;
5209;SDS011;2624;48.048;11.706;2023-09-07T16:33:31;3.87;;;3.47;;
5209;SDS011;2624;48.048;11.706;2023-09-07T16:38:33;4.83;;;3.47;;
5209;SDS011;2624;48.048;11.706;2023-09-07T16:43:35;4.43;;;3.40;;
5209;SDS011;2624;48.048;11.706;2023-09-07T16:48:38;3.53;;;3.33;;
5209;SDS011;2624;48.048;11.706;2023-09-07T16:53:40;3.47;;;3.20;;
5209;SDS011;2624;48.048;11.706;2023-09-07T16:58:41;3.50;;;3.20;;
5209;SDS011;2624;48.048;11.706;2023-09-07T17:03:45;6.53;;;3.80;;
5209;SDS011;2624;48.048;11.706;2023-09-07T17:08:47;3.57;;;2.90;;
5209;SDS011;2624;48.048;11.706;2023-09-07T17:13:48;3.70;;;3.50;;
5209;SDS011;2624;48.048;11.706;2023-09-07T17:18:51;4.47;;;3.20;;
5209;SDS011;2624;48.048;11.706;2023-09-07T17:23:53;3.23;;;2.97;;
5209;SDS011;2624;48.048;11.706;2023-09-07T17:28:55;6.77;;;3.60;;
5209;SDS011;2624;48.048;11.706;2023-09-07T17:33:58;3.27;;;2.90;;
5209;SDS011;2624;48.048;11.706;2023-09-07T17:39:00;4.87;;;3.80;;
5209;SDS011;2624;48.048;11.706;2023-09-07T17:44:03;11.67;;;3.67;;
5209;SDS011;2624;48.048;11.706;2023-09-07T17:49:06;4.80;;;4.50;;
5209;SDS011;2624;48.048;11.706;2023-09-07T17:54:08;3.77;;;3.37;;
5209;SDS011;2624;48.048;11.706;2023-09-07T17:59:10;3.63;;;3.23;;
5209;SDS011;2624;48.048;11.706;2023-09-07T18:04:13;6.73;;;4.53;;
5209;SDS011;2624;48.048;11.706;2023-09-07T18:09:15;6.47;;;3.70;;
5209;SDS011;2624;48.048;11.706;2023-09-07T18:14:17;5.70;;;3.40;;
5209;SDS011;2624;48.048;11.706;2023-09-07T18:19:20;4.00;;;3.70;;
5209;SDS011;2624;48.048;11.706;2023-09-07T18:24:22;4.67;;;3.70;;
5209;SDS011;2624;48.048;11.706;2023-09-07T18:29:24;4.13;;;3.73;;
5209;SDS011;2624;48.048;11.706;2023-09-07T18:34:27;4.60;;;3.73;;
5209;SDS011;2624;48.048;11.706;2023-09-07T18:39:29;3.97;;;3.57;;
5209;SDS011;2624;48.048;11.706;2023-09-07T18:44:31;6.63;;;3.50;;
5209;SDS011;2624;48.048;11.706;2023-09-07T18:49:34;4.93;;;3.77;;
5209;SDS011;2624;48.048;11.706;2023-09-07T18:54:35;4.47;;;4.07;;
5209;SDS011;2624;48.048;11.706;2023-09-07T18:59:37;10.60;;;4.13;;
5209;SDS011;2624;48.048;11.706;2023-09-07T19:04:41;3.83;;;3.40;;
5209;SDS011;2624;48.048;11.706;2023-09-07T19:09:42;5.93;;;4.17;;
5209;SDS011;2624;48.048;11.706;2023-09-07T19:14:44;4.10;;;3.80;;
5209;SDS011;2624;48.048;11.706;2023-09-07T19:19:47;3.50;;;3.20;;
5209;SDS011;2624;48.048;11.706;2023-09-07T19:24:49;3.30;;;3.13;;
5209;SDS011;2624;48.048;11.706;2023-09-07T19:29:51;4.43;;;3.90;;
5209;SDS011;2624;48.048;11.706;2023-09-07T19:34:54;3.97;;;3.50;;
5209;SDS011;2624;48.048;11.706;2023-09-07T19:39:56;3.27;;;2.97;;
5209;SDS011;2624;48.048;11.706;2023-09-07T19:44:58;3.40;;;3.20;;
5209;SDS011;2624;48.048;11.706;2023-09-07T19:50:01;3.07;;;2.90;;
5209;SDS011;2624;48.048;11.706;2023-09-07T19:55:04;4.33;;;3.93;;
5209;SDS011;2624;48.048;11.706;2023-09-07T20:00:07;4.43;;;3.90;;
5209;SDS011;2624;48.048;11.706;2023-09-07T20:05:11;4.33;;;3.90;;
5209;SDS011;2624;48.048;11.706;2023-09-07T20:10:13;3.93;;;3.63;;
5209;SDS011;2624;48.048;11.706;2023-09-07T20:15:15;5.13;;;4.63;;
5209;SDS011;2624;48.048;11.706;2023-09-07T20:20:18;4.47;;;4.07;;
5209;SDS011;2624;48.048;11.706;2023-09-07T20:25:20;4.23;;;3.93;;
5209;SDS011;2624;48.048;11.706;2023-09-07T20:30:22;4.30;;;4.00;;
5209;SDS011;2624;48.048;11.706;2023-09-07T20:35:25;5.43;;;4.47;;
5209;SDS011;2624;48.048;11.706;2023-09-07T20:40:30;4.10;;;3.50;;
5209;SDS011;2624;48.048;11.706;2023-09-07T20:45:37;4.80;;;4.17;;
5209;SDS011;2624;48.048;11.706;2023-09-07T20:50:40;5.53;;;4.27;;
5209;SDS011;2624;48.048;11.706;2023-09-07T20:55:42;7.17;;;3.60;;
5209;SDS011;2624;48.048;11.706;2023-09-07T21:00:44;6.80;;;3.57;;
5209;SDS011;2624;48.048;11.706;2023-09-07T21:05:48;3.90;;;3.60;;
5209;SDS011;2624;48.048;11.706;2023-09-07T21:10:50;9.23;;;4.27;;
5209;SDS011;2624;48.048;11.706;2023-09-07T21:15:52;4.43;;;4.03;;
5209;SDS011;2624;48.048;11.706;2023-09-07T21:20:56;4.07;;;3.70;;
5209;SDS011;2624;48.048;11.706;2023-09-07T21:25:58;4.63;;;4.23;;
5209;SDS011;2624;48.048;11.706;2023-09-07T21:31:00;10.03;;;4.00;;
5209;SDS011;2624;48.048;11.706;2023-09-07T21:36:04;7.93;;;4.07;;
5209;SDS011;2624;48.048;11.706;2023-09-07T21:41:06;13.07;;;3.80;;
5209;SDS011;2624;48.048;11.706;2023-09-07T21:46:08;4.77;;;3.70;;
5209;SDS011;2624;48.048;11.706;2023-09-07T21:51:11;7.60;;;3.53;;
5209;SDS011;2624;48.048;11.706;2023-09-07T21:56:13;5.80;;;3.90;;
5209;SDS011;2624;48.048;11.706;2023-09-07T22:01:14;3.63;;;3.27;;
5209;SDS011;2624;48.048;11.706;2023-09-07T22:06:18;4.60;;;4.20;;
5209;SDS011;2624;48.048;11.706;2023-09-07T22:11:19;10.43;;;4.40;;
5209;SDS011;2624;48.048;11.706;2023-09-07T22:16:21;4.30;;;3.90;;
5209;SDS011;2624;48.048;11.706;2023-09-07T22:21:24;5.27;;;4.77;;
5209;SDS011;2624;48.048;11.706;2023-09-07T22:26:26;9.20;;;4.37;;
5209;SDS011;2624;48.048;11.706;2023-09-07T22:31:28;5.93;;;3.77;;
5209;SDS011;2624;48.048;11.706;2023-09-07T22:36:32;12.73;;;4.87;;
5209;SDS011;2624;48.048;11.706;2023-09-07T22:41:33;4.70;;;3.80;;
5209;SDS011;2624;48.048;11.706;2023-09-07T22:46:35;4.37;;;4.07;;
5209;SDS011;2624;48.048;11.706;2023-09-07T22:51:38;5.10;;;4.23;;
5209;SDS011;2624;48.048;11.706;2023-09-07T22:56:40;7.03;;;3.57;;
5209;SDS011;2624;48.048;11.706;2023-09-07T23:01:42;6.50;;;4.33;;
5209;SDS011;2624;48.048;11.706;2023-09-07T23:06:45;5.90;;;4.93;;
5209;SDS011;2624;48.048;11.706;2023-09-07T23:11:47;7.77;;;4.57;;
5209;SDS011;2624;48.048;11.706;2023-09-07T23:16:48;5.47;;;4.63;;
5209;SDS011;2624;48.048;11.706;2023-09-07T23:21:53;6.57;;;4.80;;
5209;SDS011;2624;48.048;11.706;2023-09-07T23:26:55;6.00;;;3.90;;
5209;SDS011;2624;48.048;11.706;2023-09-07T23:31:56;5.00;;;4.50;;
5209;SDS011;2624;48.048;11.706;2023-09-07T23:36:59;4.03;;;3.73;;
5209;SDS011;2624;48.048;11.706;2023-09-07T23:42:01;5.93;;;4.27;;
5209;SDS011;2624;48.048;11.706;2023-09-07T23:47:04;5.80;;;4.70;;
5209;SDS011;2624;48.048;11.706;2023-09-07T23:52:07;4.00;;;3.60;;
5209;SDS011;2624;48.048;11.706;2023-09-07T23:57:09;4.40;;;3.63;;
